Athol, Kansas
Current Conditions -  °F | °C
As of 10:15 AM on Thursday 27 Nov 2014 (Local Time) from KHDE Reporting Station
Clear Clear  
Wind Chill: 16°   Ceiling: Unl
Heat Index: 28°   Visibility: 10mi
Dew Point: 19°   Wind: 16mph
Humidity: 70%   Direction: 150°SSE
Pressure: 30.35"   Gusts: NA
Location:  39.77°N, 98.92°W
Report Text: KHDE 271615Z AUTO 15014KT 10SM CLR M02/M07 A3035 RMK AO2 T10211070
Loading
Personal Weather Stations






























Interactive Weather Map New forecast layout! Learn more

10-Day Weather Forecast

Advertisements
Track Severe Weather on mobile